Time;durP1;ratioP1;P1;durP2;ratioP2;P2;SDS_P1;SDS_P2;PMS_P1;PMS_P2;Temp;Humidity;BMP_temperature;BMP_pressure;BME280_temperature;BME280_humidity;BME280_pressure;Samples;Min_cycle;Max_cycle;Signal;HPM_P1;HPM_P2
2024/01/10 00:02:21;;;;;;;3.53;3.00;;;-4.30;1.00;;;;;;5012516;28;20532;-69
2024/01/10 00:04:49;;;;;;;5.70;5.20;;;-4.30;1.00;;;;;;5012696;28;20502;-69
2024/01/10 00:07:18;;;;;;;1.33;1.07;;;-0.80;1.00;;;;;;5011793;28;20478;-70
2024/01/10 00:09:46;;;;;;;9.10;5.73;;;-4.30;1.00;;;;;;4999647;28;20495;-70
2024/01/10 00:12:14;;;;;;;5.00;4.50;;;-4.30;1.00;;;;;;5013908;28;20440;-70
2024/01/10 00:14:42;;;;;;;1.07;1.00;;;;;;;;;;4994376;28;20571;-70
2024/01/10 00:17:10;;;;;;;21.97;9.03;;;-4.40;1.00;;;;;;4993063;28;20547;-70
2024/01/10 00:19:40;;;;;;;4.70;4.50;;;-4.40;1.00;;;;;;5003292;28;20535;-70
2024/01/10 00:22:07;;;;;;;13.03;5.13;;;-4.30;1.00;;;;;;5013303;28;20483;-70
2024/01/10 00:24:36;;;;;;;2.80;2.53;;;-4.40;1.00;;;;;;5011011;28;20481;-69
2024/01/10 00:27:05;;;;;;;2.47;2.33;;;-4.30;1.00;;;;;;5010745;28;20518;-70
2024/01/10 00:29:33;;;;;;;2.00;1.90;;;-4.30;1.00;;;;;;5003109;28;20445;-70
2024/01/10 00:32:01;;;;;;;10.47;5.70;;;-4.40;1.00;;;;;;4995304;28;20444;-69
2024/01/10 00:34:28;;;;;;;7.90;4.57;;;-4.40;1.00;;;;;;4993821;28;20517;-68
2024/01/10 00:36:58;;;;;;;9.83;5.80;;;;;;;;;;5003965;28;20486;-68
2024/01/10 00:39:26;;;;;;;2.60;1.63;;;-4.40;1.00;;;;;;4993453;28;20483;-69
2024/01/10 00:41:55;;;;;;;2.70;2.53;;;;;;;;;;4992432;28;20452;-69
2024/01/10 00:44:23;;;;;;;4.93;3.57;;;-4.30;1.00;;;;;;5000511;28;20479;-69
2024/01/10 00:46:51;;;;;;;14.30;5.83;;;-4.30;1.00;;;;;;5000230;28;20465;-69
2024/01/10 00:49:19;;;;;;;0.50;0.10;;;-4.40;1.00;;;;;;5009476;28;20455;-69
2024/01/10 00:51:47;;;;;;;3.87;3.47;;;-4.30;1.00;;;;;;5011949;28;20487;-69
2024/01/10 00:54:16;;;;;;;0.80;0.50;;;-4.30;1.00;;;;;;4994173;28;20485;-70
2024/01/10 00:56:44;;;;;;;2.50;1.60;;;-4.30;1.00;;;;;;4992315;28;20829;-68
2024/01/10 00:59:12;;;;;;;1.40;1.30;;;-4.40;1.00;;;;;;4992274;28;20495;-69
2024/01/10 01:01:40;;;;;;;8.23;2.73;;;-4.30;1.00;;;;;;4992058;28;21003;-69
2024/01/10 01:04:08;;;;;;;1.07;0.97;;;-4.20;1.00;;;;;;4991909;28;20441;-69
2024/01/10 01:06:36;;;;;;;1.00;0.60;;;-4.20;1.00;;;;;;4992069;28;20985;-70
2024/01/10 01:09:04;;;;;;;5.57;2.27;;;-4.20;1.00;;;;;;4995098;28;20456;-69
2024/01/10 01:11:33;;;;;;;2.50;1.93;;;-4.30;1.00;;;;;;4993190;28;20864;-69
2024/01/10 01:14:01;;;;;;;0.50;0.30;;;;;;;;;;4999301;28;20896;-69
2024/01/10 01:16:29;;;;;;;4.53;4.23;;;-4.20;1.00;;;;;;5001311;28;20463;-69
2024/01/10 01:18:57;;;;;;;1.27;1.20;;;;;;;;;;4991781;28;20503;-69
2024/01/10 01:21:25;;;;;;;0.50;0.33;;;-4.30;1.00;;;;;;4992245;28;20515;-69
2024/01/10 01:23:53;;;;;;;2.30;1.07;;;-4.40;1.00;;;;;;4992139;28;20531;-69
2024/01/10 01:26:21;;;;;;;4.30;3.97;;;-4.40;1.00;;;;;;4992440;28;20492;-69
2024/01/10 01:28:50;;;;;;;2.83;2.67;;;-4.40;1.00;;;;;;5014070;28;20448;-69
2024/01/10 01:31:18;;;;;;;4.27;2.87;;;-4.50;1.00;;;;;;5014946;28;20451;-69
2024/01/10 01:33:46;;;;;;;3.47;1.80;;;-4.50;1.00;;;;;;5015476;28;20542;-71
2024/01/10 01:36:14;;;;;;;3.90;2.87;;;-4.50;1.00;;;;;;5007030;28;20579;-69
2024/01/10 01:38:42;;;;;;;8.33;4.37;;;-4.50;1.00;;;;;;4999435;28;20871;-69
2024/01/10 01:41:10;;;;;;;5.00;2.73;;;;;;;;;;5007249;28;20530;-69
2024/01/10 01:43:38;;;;;;;1.70;1.60;;;-4.60;1.00;;;;;;5005762;28;20541;-69
2024/01/10 01:46:08;;;;;;;3.33;3.13;;;-4.60;1.00;;;;;;5012314;28;20537;-69
2024/01/10 01:48:36;;;;;;;2.20;0.77;;;-4.50;1.00;;;;;;4995432;28;20570;-70
2024/01/10 01:51:07;;;;;;;9.03;3.00;;;-4.50;1.00;;;;;;4995352;28;20951;-68
2024/01/10 01:53:36;;;;;;;0.50;0.10;;;-4.50;1.00;;;;;;4995200;28;20448;-70
2024/01/10 01:56:08;;;;;;;2.10;0.97;;;-4.50;1.00;;;;;;4995703;28;20475;-69
2024/01/10 01:58:36;;;;;;;16.40;4.63;;;-4.50;1.00;;;;;;5002251;28;20538;-69
2024/01/10 02:01:05;;;;;;;2.17;2.07;;;-4.60;1.00;;;;;;4995203;28;20524;-68
2024/01/10 02:03:35;;;;;;;1.23;1.13;;;-4.60;1.00;;;;;;4995053;28;20440;-69
2024/01/10 02:06:04;;;;;;;5.43;3.60;;;-4.60;1.00;;;;;;4994927;28;20445;-69
2024/01/10 02:08:33;;;;;;;0.60;0.50;;;-4.60;1.00;;;;;;4994742;28;20477;-69
2024/01/10 02:11:02;;;;;;;3.63;2.23;;;-4.50;1.00;;;;;;5001276;28;20505;-68
2024/01/10 02:13:32;;;;;;;1.43;1.33;;;-4.60;1.00;;;;;;5004341;28;20529;-69
2024/01/10 02:16:00;;;;;;;4.63;4.20;;;-4.60;1.00;;;;;;5014430;28;21240;-68
2024/01/10 02:18:28;;;;;;;4.03;2.23;;;-4.50;1.00;;;;;;5003873;28;20982;-69
2024/01/10 02:20:58;;;;;;;3.93;3.47;;;-4.50;1.00;;;;;;5009700;28;20887;-69
2024/01/10 02:23:26;;;;;;;3.67;3.27;;;-4.50;1.00;;;;;;5014852;28;20483;-68
2024/01/10 02:25:55;;;;;;;4.87;1.40;;;-4.60;1.00;;;;;;5006140;28;21108;-68
2024/01/10 02:28:24;;;;;;;3.50;2.53;;;-4.50;1.00;;;;;;5005679;28;20626;-68
2024/01/10 02:30:53;;;;;;;5.33;1.90;;;-4.50;1.00;;;;;;4998984;28;20485;-69
2024/01/10 02:33:21;;;;;;;2.50;2.30;;;-4.40;1.00;;;;;;4994444;28;20449;-68
2024/01/10 02:35:49;;;;;;;4.53;2.83;;;;;;;;;;4994576;28;20535;-68
2024/01/10 02:38:20;;;;;;;1.90;1.80;;;-4.40;1.00;;;;;;4994055;28;20476;-69
2024/01/10 02:40:48;;;;;;;1.63;1.57;;;-4.40;1.00;;;;;;4993883;28;20833;-69
2024/01/10 02:43:17;;;;;;;1.50;1.40;;;-4.40;1.00;;;;;;4994397;28;20473;-69
2024/01/10 02:45:45;;;;;;;0.80;0.60;;;-4.40;1.00;;;;;;4994091;28;20807;-69
2024/01/10 02:48:13;;;;;;;1.93;1.83;;;-4.40;1.00;;;;;;5009665;28;20554;-69
2024/01/10 02:50:41;;;;;;;1.90;1.43;;;;;;;;;;5014843;28;20829;-69
2024/01/10 02:53:09;;;;;;;3.60;2.10;;;;;;;;;;5013883;28;20476;-72
2024/01/10 02:55:37;;;;;;;0.50;0.30;;;-4.50;1.00;;;;;;5013440;28;20567;-69
2024/01/10 02:58:05;;;;;;;2.27;2.10;;;-4.60;1.00;;;;;;5015935;23;20524;-73
2024/01/10 03:00:34;;;;;;;5.20;2.37;;;-4.50;1.00;;;;;;5002133;28;20531;-73
2024/01/10 03:03:02;;;;;;;2.40;1.00;;;-4.50;1.00;;;;;;5006417;28;20445;-74
2024/01/10 03:05:30;;;;;;;5.00;3.10;;;-4.60;1.00;;;;;;4997988;28;20481;-73
2024/01/10 03:07:58;;;;;;;6.33;3.60;;;-4.60;1.00;;;;;;5000233;28;20473;-71
2024/01/10 03:10:26;;;;;;;3.33;0.77;;;-4.50;1.00;;;;;;5002126;28;20452;-72
2024/01/10 03:12:54;;;;;;;13.30;12.00;;;-4.60;1.00;;;;;;5007091;28;20456;-73
2024/01/10 03:15:22;;;;;;;14.60;4.20;;;-4.60;1.00;;;;;;5007024;28;20519;-72
2024/01/10 03:17:51;;;;;;;0.57;0.27;;;-4.70;1.00;;;;;;4998679;28;20902;-73
2024/01/10 03:20:19;;;;;;;6.10;1.63;;;-4.60;1.00;;;;;;5003439;28;20461;-74
2024/01/10 03:22:47;;;;;;;16.47;1.90;;;-4.60;1.00;;;;;;5004412;28;20441;-73
2024/01/10 03:25:15;;;;;;;1.97;1.80;;;-4.60;1.00;;;;;;5003908;28;20524;-73
2024/01/10 03:27:42;;;;;;;4.10;2.23;;;-4.60;1.00;;;;;;5005212;28;20527;-73
2024/01/10 03:30:11;;;;;;;1.80;1.70;;;-4.60;1.00;;;;;;5004595;28;20445;-72
2024/01/10 03:32:39;;;;;;;10.07;3.80;;;-4.60;1.00;;;;;;4996682;28;20551;-72
2024/01/10 03:35:10;;;;;;;3.63;2.80;;;-4.60;1.00;;;;;;4994315;28;20579;-73
2024/01/10 03:37:38;;;;;;;3.13;2.10;;;-4.60;1.00;;;;;;4992084;28;20528;-71
2024/01/10 03:40:07;;;;;;;3.43;2.23;;;-4.70;1.00;;;;;;4993984;28;20460;-73
2024/01/10 03:42:35;;;;;;;4.17;2.60;;;-4.60;1.00;;;;;;4993265;28;20857;-72
2024/01/10 03:45:03;;;;;;;6.47;6.07;;;-4.60;1.00;;;;;;4993749;28;20871;-72
2024/01/10 03:47:31;;;;;;;2.20;1.90;;;-4.60;1.00;;;;;;4989292;28;20869;-73
2024/01/10 03:49:59;;;;;;;3.70;1.07;;;-4.60;1.00;;;;;;4992880;28;20440;-73
2024/01/10 03:52:28;;;;;;;21.63;7.60;;;-4.60;1.00;;;;;;4991364;28;20503;-73
2024/01/10 03:54:57;;;;;;;2.00;1.90;;;-4.60;1.00;;;;;;4994046;28;20515;-72
2024/01/10 03:57:25;;;;;;;3.13;2.97;;;-4.60;1.00;;;;;;4990584;28;20692;-72
2024/01/10 03:59:53;;;;;;;1.67;1.57;;;-4.60;1.00;;;;;;4995429;28;20527;-73
2024/01/10 04:02:21;;;;;;;7.90;2.97;;;-4.60;1.00;;;;;;4994377;28;20942;-72
2024/01/10 04:04:50;;;;;;;11.77;2.78;;;-4.60;1.00;;;;;;4992522;28;20449;-73
2024/01/10 04:07:17;;;;;;;7.73;3.00;;;-4.50;1.00;;;;;;4993562;28;20229;-72
2024/01/10 04:09:47;;;;;;;0.50;0.10;;;-4.60;1.00;;;;;;4991813;28;20461;-72
2024/01/10 04:12:14;;;;;;;1.53;1.37;;;-4.60;1.00;;;;;;4994889;28;20449;-72
2024/01/10 04:14:42;;;;;;;0.50;0.10;;;-4.60;1.00;;;;;;4999921;28;20503;-73
2024/01/10 04:17:10;;;;;;;0.50;0.10;;;-4.60;1.00;;;;;;5003968;28;20484;-72
2024/01/10 04:19:38;;;;;;;0.50;0.27;;;-4.50;1.00;;;;;;4994705;28;20460;-72
2024/01/10 04:22:06;;;;;;;2.23;2.03;;;-4.60;1.00;;;;;;4989706;28;20800;-72
2024/01/10 04:24:34;;;;;;;1.00;0.87;;;-4.70;1.00;;;;;;4990806;28;20480;-72
2024/01/10 04:27:03;;;;;;;2.30;0.90;;;-4.70;1.00;;;;;;4989086;28;20476;-72
2024/01/10 04:29:34;;;;;;;1.23;0.80;;;-4.60;1.00;;;;;;4990181;28;20993;-72
2024/01/10 04:32:02;;;;;;;3.60;3.30;;;-4.60;1.00;;;;;;4991435;28;20453;-74
2024/01/10 04:34:30;;;;;;;0.83;0.83;;;-4.70;1.00;;;;;;4990034;28;20455;-73
2024/01/10 04:36:58;;;;;;;1.73;1.50;;;-4.70;1.00;;;;;;4993849;28;20484;-72
2024/01/10 04:39:26;;;;;;;6.20;2.30;;;-4.70;1.00;;;;;;5004349;28;20445;-73
2024/01/10 04:41:54;;;;;;;4.20;2.80;;;-4.70;1.00;;;;;;5004577;28;20456;-74
2024/01/10 04:44:23;;;;;;;6.87;3.97;;;-4.70;1.00;;;;;;5001377;28;20530;-72
2024/01/10 04:46:51;;;;;;;1.77;1.67;;;-4.60;1.00;;;;;;4995465;28;20532;-74
2024/01/10 04:49:19;;;;;;;1.37;0.57;;;-4.70;1.00;;;;;;5002537;28;20753;-73
2024/01/10 04:51:47;;;;;;;0.50;0.40;;;-4.70;1.00;;;;;;5003036;28;21033;-73
2024/01/10 04:54:15;;;;;;;0.93;0.57;;;-4.70;1.00;;;;;;5003145;28;20512;-72
2024/01/10 04:56:43;;;;;;;6.27;4.33;;;-4.60;1.00;;;;;;5002968;28;20495;-74
2024/01/10 04:59:11;;;;;;;4.93;2.53;;;-4.60;1.00;;;;;;5001720;28;20456;-73
2024/01/10 05:01:41;;;;;;;0.50;0.10;;;-4.60;1.00;;;;;;4996940;28;20495;-73
2024/01/10 05:04:09;;;;;;;3.63;3.03;;;-4.60;1.00;;;;;;4999205;28;20444;-73
2024/01/10 05:06:37;;;;;;;0.50;0.10;;;-4.60;1.00;;;;;;5001223;28;20559;-73
2024/01/10 05:09:06;;;;;;;0.97;0.87;;;-4.60;1.00;;;;;;4999738;28;20472;-73
2024/01/10 05:11:35;;;;;;;4.50;2.57;;;-4.60;1.00;;;;;;4996883;28;20477;-73
2024/01/10 05:14:03;;;;;;;4.20;3.80;;;-4.70;1.00;;;;;;4996453;28;20503;-73
2024/01/10 05:16:31;;;;;;;1.20;0.87;;;-4.70;1.00;;;;;;4996547;28;20516;-72
2024/01/10 05:19:03;;;;;;;1.53;1.43;;;-4.70;1.00;;;;;;4994974;28;20559;-72
2024/01/10 05:21:32;;;;;;;3.60;2.63;;;-4.70;1.00;;;;;;4994412;28;20544;-74
2024/01/10 05:24:00;;;;;;;2.83;1.80;;;-4.70;1.00;;;;;;4995962;28;20445;-74
2024/01/10 05:26:28;;;;;;;2.33;2.17;;;-4.70;1.00;;;;;;4998148;28;20468;-74
2024/01/10 05:28:56;;;;;;;0.90;0.80;;;-4.70;1.00;;;;;;5008455;28;20455;-73
2024/01/10 05:31:24;;;;;;;11.77;10.60;;;-4.60;1.00;;;;;;5009953;28;20869;-74
2024/01/10 05:33:53;;;;;;;5.10;1.63;;;-4.60;1.00;;;;;;5008715;28;20962;-73
2024/01/10 05:36:24;;;;;;;5.83;2.43;;;-4.60;1.00;;;;;;5013627;28;20531;-73
2024/01/10 05:38:52;;;;;;;0.50;0.10;;;-4.60;1.00;;;;;;5011923;28;20584;-73
2024/01/10 05:41:20;;;;;;;8.87;2.80;;;-4.60;1.00;;;;;;5012705;28;20487;-74
2024/01/10 05:43:48;;;;;;;0.70;0.70;;;-4.60;1.00;;;;;;5011828;28;20445;-74
2024/01/10 05:46:16;;;;;;;3.97;1.70;;;-4.60;1.00;;;;;;5009558;28;20488;-73
2024/01/10 05:48:46;;;;;;;10.80;2.20;;;-4.60;1.00;;;;;;5014715;28;20978;-74
2024/01/10 05:51:14;;;;;;;2.77;2.47;;;-4.60;1.00;;;;;;5006734;28;20441;-75
2024/01/10 05:53:43;;;;;;;12.77;11.93;;;-4.40;1.00;;;;;;5005614;28;20463;-73
2024/01/10 05:56:12;;;;;;;1.30;1.20;;;-4.40;1.00;;;;;;5014938;28;20484;-74
2024/01/10 05:58:40;;;;;;;1.30;0.93;;;-4.40;1.00;;;;;;5014844;28;20441;-73
2024/01/10 06:01:09;;;;;;;9.13;4.40;;;-4.40;1.00;;;;;;5014632;28;20480;-73
2024/01/10 06:03:38;;;;;;;1.83;1.13;;;-4.50;1.00;;;;;;5011460;28;20931;-73
2024/01/10 06:06:07;;;;;;;1.27;1.17;;;-4.60;1.00;;;;;;5013389;28;20445;-72
2024/01/10 06:08:35;;;;;;;0.60;0.40;;;-4.60;1.00;;;;;;5016321;28;20476;-73
2024/01/10 06:11:08;;;;;;;4.40;1.53;;;-4.50;1.00;;;;;;5015244;28;20445;-73
2024/01/10 06:13:37;;;;;;;8.67;3.50;;;-4.50;1.00;;;;;;5010680;28;20781;-72
2024/01/10 06:16:20;;;;;;;0.57;0.30;;;-4.60;1.00;;;;;;5007219;28;20488;-72
2024/01/10 06:18:48;;;;;;;1.33;1.20;;;-4.60;1.00;;;;;;4999076;28;20536;-74
2024/01/10 06:21:17;;;;;;;3.43;3.20;;;-4.60;1.00;;;;;;4989544;28;20472;-72
2024/01/10 06:23:44;;;;;;;4.37;2.13;;;-4.60;1.00;;;;;;5001891;28;20449;-72
2024/01/10 06:26:14;;;;;;;11.87;8.00;;;-4.70;1.00;;;;;;4998461;28;20956;-73
2024/01/10 06:28:42;;;;;;;2.17;2.07;;;-4.60;1.00;;;;;;4995314;28;20488;-72
2024/01/10 06:31:10;;;;;;;0.90;0.63;;;-4.60;1.00;;;;;;4989765;28;20458;-73
2024/01/10 06:33:40;;;;;;;10.90;4.67;;;-4.60;1.00;;;;;;4995008;28;20476;-73
2024/01/10 06:36:08;;;;;;;1.17;1.07;;;-4.60;1.00;;;;;;4985900;28;20477;-73
2024/01/10 06:38:36;;;;;;;2.27;0.80;;;-2.00;1.00;;;;;;4995384;28;20464;-72
2024/01/10 06:41:09;;;;;;;6.67;3.77;;;-4.50;1.00;;;;;;4994626;28;20480;-73
2024/01/10 06:43:38;;;;;;;1.50;1.33;;;-4.50;1.00;;;;;;5008838;28;20495;-72
2024/01/10 06:46:07;;;;;;;0.77;0.73;;;-4.60;1.00;;;;;;5011824;28;20447;-73
2024/01/10 06:48:35;;;;;;;2.40;2.00;;;-4.60;1.00;;;;;;4998817;28;20460;-73
2024/01/10 06:51:10;;;;;;;3.27;3.03;;;-4.60;1.00;;;;;;5005696;28;20465;-73
2024/01/10 06:53:38;;;;;;;4.40;3.40;;;-4.70;1.00;;;;;;4999246;28;20452;-73
2024/01/10 06:56:07;;;;;;;4.83;3.10;;;-4.70;1.00;;;;;;5004825;28;20452;-72
2024/01/10 06:58:35;;;;;;;1.63;1.00;;;-4.70;1.00;;;;;;5008154;28;20531;-73
2024/01/10 07:01:05;;;;;;;11.07;3.10;;;-3.50;1.00;;;;;;5009192;28;20524;-73
2024/01/10 07:03:34;;;;;;;1.13;1.03;;;-4.60;1.00;;;;;;5006972;28;20465;-73
2024/01/10 07:06:03;;;;;;;0.60;0.37;;;-4.50;1.00;;;;;;5011050;28;20449;-73
2024/01/10 07:08:31;;;;;;;1.20;0.97;;;-1.10;1.00;;;;;;5015032;28;20469;-73
2024/01/10 07:10:59;;;;;;;2.10;1.60;;;-4.50;1.00;;;;;;4999467;28;20449;-73
2024/01/10 07:13:27;;;;;;;3.70;2.87;;;-4.50;1.00;;;;;;4998783;28;20445;-73
2024/01/10 07:15:55;;;;;;;4.17;3.47;;;-4.50;1.00;;;;;;4998524;28;20448;-73
2024/01/10 07:18:24;;;;;;;1.87;1.70;;;-4.60;1.00;;;;;;4995080;28;20492;-73
2024/01/10 07:20:52;;;;;;;0.83;0.83;;;-4.60;1.00;;;;;;4996404;28;20487;-73
2024/01/10 07:23:20;;;;;;;0.70;0.53;;;-4.60;1.00;;;;;;4998633;28;20521;-73
2024/01/10 07:25:49;;;;;;;0.50;0.20;;;-4.60;1.00;;;;;;4999118;28;20467;-73
2024/01/10 07:28:17;;;;;;;2.20;1.80;;;-4.50;1.00;;;;;;4999455;28;20540;-73
2024/01/10 07:30:45;;;;;;;5.87;4.70;;;-4.60;1.00;;;;;;4998900;28;20488;-73
2024/01/10 07:33:13;;;;;;;1.67;1.57;;;-4.50;1.00;;;;;;4998410;28;20526;-73
2024/01/10 07:35:43;;;;;;;0.60;0.40;;;-4.50;1.00;;;;;;4996835;28;20461;-73
2024/01/10 07:38:11;;;;;;;0.50;0.10;;;-4.50;1.00;;;;;;4996877;28;20520;-73
2024/01/10 07:40:39;;;;;;;0.90;0.90;;;-4.50;1.00;;;;;;4998667;28;20457;-73
2024/01/10 07:43:07;;;;;;;1.73;1.33;;;-4.40;1.00;;;;;;4996156;28;20439;-73
2024/01/10 07:45:35;;;;;;;0.50;0.10;;;-4.40;1.00;;;;;;4994172;28;20444;-73
2024/01/10 07:48:03;;;;;;;0.50;0.10;;;-4.30;1.00;;;;;;4994928;28;20464;-73
2024/01/10 07:50:30;;;;;;;2.13;2.03;;;-4.30;1.00;;;;;;4996732;28;20445;-73
2024/01/10 07:53:01;;;;;;;4.33;1.80;;;-4.20;1.00;;;;;;5005146;28;20545;-72
2024/01/10 07:55:29;;;;;;;0.87;0.87;;;-4.20;1.00;;;;;;5007560;28;20512;-72
2024/01/10 07:57:57;;;;;;;1.90;1.70;;;-4.20;1.00;;;;;;5003599;28;20492;-72
2024/01/10 08:00:25;;;;;;;2.97;1.60;;;-4.20;1.00;;;;;;4995268;28;20476;-72
2024/01/10 08:02:53;;;;;;;0.50;0.40;;;-4.20;1.00;;;;;;4993742;28;20511;-73
2024/01/10 08:05:21;;;;;;;2.70;2.00;;;-1.50;1.00;;;;;;4992048;28;20476;-73
2024/01/10 08:07:49;;;;;;;0.50;0.10;;;-1.00;1.00;;;;;;4984946;28;20457;-73
2024/01/10 08:10:19;;;;;;;3.83;2.20;;;-4.10;1.00;;;;;;4993344;28;20552;-73
2024/01/10 08:12:47;;;;;;;1.23;1.13;;;-4.10;1.00;;;;;;4992353;28;20745;-73
2024/01/10 08:15:15;;;;;;;1.30;1.20;;;-4.00;1.00;;;;;;4993271;28;20484;-73
2024/01/10 08:17:43;;;;;;;0.50;0.10;;;-4.00;1.00;;;;;;4991778;28;20521;-73
2024/01/10 08:20:14;;;;;;;0.80;0.67;;;-4.00;1.00;;;;;;4985591;28;20529;-73
2024/01/10 08:22:43;;;;;;;3.50;1.80;;;-4.00;1.00;;;;;;4990406;28;20447;-73
2024/01/10 08:25:12;;;;;;;0.60;0.40;;;-3.90;1.00;;;;;;4992898;28;20445;-73
2024/01/10 08:27:41;;;;;;;2.50;0.53;;;-3.90;1.00;;;;;;4993273;28;20468;-72
2024/01/10 08:30:12;;;;;;;6.13;2.73;;;-3.90;1.00;;;;;;4992985;28;20489;-72
2024/01/10 08:32:41;;;;;;;1.27;1.17;;;-3.90;1.00;;;;;;4993570;28;20448;-72
2024/01/10 08:35:09;;;;;;;0.80;0.80;;;-3.90;1.00;;;;;;4989287;28;20456;-72
2024/01/10 08:37:40;;;;;;;7.40;2.20;;;-3.80;1.00;;;;;;4990846;28;20626;-72
2024/01/10 08:40:11;;;;;;;2.83;2.63;;;-3.80;1.00;;;;;;4999330;28;20518;-72
2024/01/10 08:42:41;;;;;;;3.60;2.10;;;-3.70;1.00;;;;;;5000028;28;20535;-72
2024/01/10 08:45:11;;;;;;;1.13;1.13;;;-3.60;1.00;;;;;;5000092;28;20447;-74
2024/01/10 08:47:39;;;;;;;0.60;0.57;;;-3.60;1.00;;;;;;4998650;28;20460;-72
2024/01/10 08:50:09;;;;;;;3.20;2.90;;;-3.50;1.00;;;;;;4993642;28;20483;-73
2024/01/10 08:52:38;;;;;;;0.50;0.23;;;-3.50;1.00;;;;;;4994263;28;20453;-74
2024/01/10 08:55:07;;;;;;;14.23;7.70;;;-3.40;1.00;;;;;;4988429;28;20609;-73
2024/01/10 08:57:41;;;;;;;0.50;0.20;;;-3.40;1.00;;;;;;4998011;28;20843;-73
2024/01/10 09:00:11;;;;;;;0.60;0.53;;;-3.30;1.00;;;;;;4997561;28;20444;-73
2024/01/10 09:02:40;;;;;;;0.90;0.60;;;-3.10;1.00;;;;;;4998038;28;20476;-74
2024/01/10 09:05:09;;;;;;;1.00;0.60;;;-2.90;1.00;;;;;;4997232;28;20456;-73
2024/01/10 09:07:38;;;;;;;5.90;4.83;;;-2.90;1.00;;;;;;4997123;28;20519;-73
2024/01/10 09:10:08;;;;;;;2.80;1.80;;;-3.00;1.00;;;;;;4991097;28;20445;-73
2024/01/10 09:12:36;;;;;;;10.43;3.07;;;-3.00;1.00;;;;;;4996648;28;20437;-73
2024/01/10 09:15:08;;;;;;;6.20;5.70;;;-3.10;1.00;;;;;;4992290;28;20832;-73
2024/01/10 09:17:36;;;;;;;8.73;1.30;;;-3.20;1.00;;;;;;4994586;28;20885;-72
2024/01/10 09:20:04;;;;;;;0.50;0.27;;;-3.20;1.00;;;;;;4999857;28;20455;-71
2024/01/10 09:22:32;;;;;;;5.63;2.37;;;-3.10;1.00;;;;;;5000671;28;20451;-72
2024/01/10 09:25:03;;;;;;;1.90;0.70;;;-3.10;1.00;;;;;;4989667;28;20436;-73
2024/01/10 09:27:32;;;;;;;0.60;0.50;;;-3.00;1.00;;;;;;4997555;28;20547;-71
2024/01/10 09:30:01;;;;;;;13.43;4.23;;;-3.00;1.00;;;;;;4998145;28;20548;-72
2024/01/10 09:32:30;;;;;;;5.33;4.27;;;-3.00;1.00;;;;;;4998812;28;20444;-73
2024/01/10 09:34:59;;;;;;;2.20;2.10;;;-3.00;1.00;;;;;;4996730;28;20992;-73
2024/01/10 09:37:27;;;;;;;0.50;0.10;;;-3.00;1.00;;;;;;4997415;28;20464;-73
2024/01/10 09:39:55;;;;;;;5.80;3.83;;;-3.00;1.00;;;;;;4994608;28;20495;-73
2024/01/10 09:42:25;;;;;;;2.10;2.00;;;-3.00;1.00;;;;;;5001178;28;20531;-72
2024/01/10 09:44:53;;;;;;;0.77;0.70;;;-2.90;1.00;;;;;;4998693;28;20928;-72
2024/01/10 09:47:22;;;;;;;7.30;2.30;;;-2.90;1.00;;;;;;4998843;28;20468;-74
2024/01/10 09:49:51;;;;;;;0.50;0.20;;;-2.90;1.00;;;;;;4996756;28;20439;-73
2024/01/10 09:52:25;;;;;;;9.90;2.67;;;-2.80;1.00;;;;;;4994297;28;20464;-71
2024/01/10 09:54:56;;;;;;;2.97;2.77;;;-2.80;1.00;;;;;;4994365;28;20444;-73
2024/01/10 09:57:25;;;;;;;4.23;2.93;;;-2.80;1.00;;;;;;4993111;28;20575;-73
2024/01/10 09:59:54;;;;;;;0.50;0.10;;;-2.80;1.00;;;;;;4992613;28;20925;-73
2024/01/10 10:02:24;;;;;;;1.33;1.23;;;-2.90;1.00;;;;;;4974660;28;20481;-73
2024/01/10 10:05:03;;;;;;;0.50;0.10;;;-2.80;1.00;;;;;;4976761;28;20461;-72
2024/01/10 10:07:31;;;;;;;0.73;0.73;;;-2.70;1.00;;;;;;4979071;28;20540;-71
2024/01/10 10:09:59;;;;;;;2.20;0.87;;;-2.70;1.00;;;;;;4976988;28;20489;-73
2024/01/10 10:12:42;;;;;;;0.50;0.10;;;-2.60;1.00;;;;;;4980628;28;20944;-73
2024/01/10 10:15:12;;;;;;;4.20;3.80;;;-2.60;1.00;;;;;;4982823;28;20485;-73
2024/01/10 10:17:46;;;;;;;0.93;0.83;;;-2.60;1.00;;;;;;4974126;28;20478;-72
2024/01/10 10:20:21;;;;;;;0.50;0.20;;;-2.50;1.00;;;;;;4984945;28;20587;-73
2024/01/10 10:23:01;;;;;;;2.60;1.70;;;-2.50;1.00;;;;;;4984879;28;20477;-72
2024/01/10 10:25:32;;;;;;;3.73;2.10;;;-2.50;1.00;;;;;;4981399;28;20947;-72
2024/01/10 10:28:00;;;;;;;0.63;0.40;;;-2.50;1.00;;;;;;4974765;28;21059;-73
2024/01/10 10:30:28;;;;;;;7.90;7.20;;;-2.50;1.00;;;;;;4974436;28;20453;-73
2024/01/10 10:32:56;;;;;;;11.70;11.20;;;-0.80;1.00;;;;;;4974654;28;20477;-72
2024/01/10 10:35:26;;;;;;;0.50;0.17;;;-2.50;1.00;;;;;;4980068;28;20491;-73
2024/01/10 10:38:09;;;;;;;2.13;2.00;;;-2.50;1.00;;;;;;4984590;28;20843;-73
2024/01/10 10:40:38;;;;;;;1.80;1.70;;;-2.50;1.00;;;;;;4985683;28;20477;-73
2024/01/10 10:43:09;;;;;;;0.60;0.33;;;-2.40;1.00;;;;;;4986763;28;20468;-72
2024/01/10 10:45:37;;;;;;;0.97;0.97;;;-2.40;1.00;;;;;;4979123;28;20441;-73
2024/01/10 10:48:10;;;;;;;1.17;1.00;;;-2.40;1.00;;;;;;4981606;28;20497;-73
2024/01/10 10:50:39;;;;;;;8.77;2.33;;;-2.30;1.00;;;;;;4974325;28;20479;-73
2024/01/10 10:53:08;;;;;;;1.07;0.83;;;-2.30;1.00;;;;;;4990049;28;20939;-73
2024/01/10 10:55:38;;;;;;;0.50;0.10;;;-2.20;1.00;;;;;;4983679;28;20461;-73
2024/01/10 10:58:07;;;;;;;12.23;3.80;;;-2.20;1.00;;;;;;4973767;28;20473;-73
2024/01/10 11:00:40;;;;;;;0.50;0.10;;;-2.20;1.00;;;;;;4982150;28;20489;-72
2024/01/10 11:03:11;;;;;;;0.50;0.10;;;-2.10;1.00;;;;;;4973774;28;20846;-72
2024/01/10 11:05:42;;;;;;;7.77;7.43;;;-2.10;1.00;;;;;;4980049;28;20460;-72
2024/01/10 11:08:13;;;;;;;0.50;0.10;;;-2.10;1.00;;;;;;4981985;28;20462;-72
2024/01/10 11:10:44;;;;;;;0.60;0.47;;;-2.00;1.00;;;;;;4973693;28;20450;-73
2024/01/10 11:13:30;;;;;;;0.50;0.20;;;-1.90;1.00;;;;;;4984759;28;20940;-73
2024/01/10 11:16:20;;;;;;;10.70;6.50;;;-1.80;1.00;;;;;;4982187;28;20524;-72
2024/01/10 11:19:04;;;;;;;0.50;0.20;;;-1.70;1.00;;;;;;4985726;28;20453;-73
2024/01/10 11:21:43;;;;;;;1.07;0.97;;;-1.70;1.00;;;;;;4986685;28;20552;-73
2024/01/10 11:24:12;;;;;;;6.33;5.83;;;;;;;;;;4990571;28;20531;-73
2024/01/10 11:26:40;;;;;;;9.13;3.97;;;-1.70;1.00;;;;;;4984833;28;20981;-72
2024/01/10 11:29:08;;;;;;;29.90;11.57;;;-1.70;1.00;;;;;;4988991;28;20454;-73
2024/01/10 11:31:36;;;;;;;8.03;1.57;;;-1.70;1.00;;;;;;4993188;28;20535;-71
2024/01/10 11:34:04;;;;;;;0.50;0.20;;;-1.70;1.00;;;;;;4984974;28;20436;-72
2024/01/10 11:36:33;;;;;;;0.53;0.27;;;-1.60;1.00;;;;;;4993463;28;20963;-71
2024/01/10 11:39:05;;;;;;;0.60;0.57;;;-1.50;1.00;;;;;;4992858;28;20497;-72
2024/01/10 11:41:35;;;;;;;3.13;2.40;;;-1.40;1.00;;;;;;4993903;28;20552;-72
2024/01/10 11:44:29;;;;;;;3.07;1.90;;;-1.20;1.00;;;;;;4993833;28;20523;-72
2024/01/10 11:46:59;;;;;;;0.70;0.50;;;-1.10;1.00;;;;;;4992681;28;20535;-72
2024/01/10 11:49:27;;;;;;;6.83;1.80;;;-1.00;1.00;;;;;;4992742;28;20524;-72
2024/01/10 11:51:58;;;;;;;0.50;0.10;;;-1.00;1.00;;;;;;4992005;28;20544;-73
2024/01/10 11:54:41;;;;;;;0.50;0.10;;;-0.90;1.00;;;;;;4986429;28;20964;-72
2024/01/10 11:57:12;;;;;;;3.67;3.30;;;-0.90;1.00;;;;;;4984073;28;20931;-72
2024/01/10 11:59:42;;;;;;;0.50;0.10;;;-0.90;1.00;;;;;;4992194;28;20998;-72
2024/01/10 12:02:10;;;;;;;0.50;0.10;;;-0.80;1.00;;;;;;4992774;28;20537;-73
2024/01/10 12:04:39;;;;;;;0.50;0.30;;;-0.70;1.00;;;;;;4992012;28;21023;-72
2024/01/10 12:07:17;;;;;;;0.50;0.10;;;-0.60;1.00;;;;;;4991497;28;20991;-72
2024/01/10 12:09:47;;;;;;;0.50;0.20;;;-0.60;1.00;;;;;;4993114;28;20468;-73
2024/01/10 12:12:15;;;;;;;0.50;0.10;;;-0.60;1.00;;;;;;4987782;28;20519;-73
2024/01/10 12:14:44;;;;;;;0.50;0.30;;;-0.50;1.00;;;;;;4998243;28;20457;-72
2024/01/10 12:17:12;;;;;;;1.53;1.43;;;-0.50;1.00;;;;;;4998912;28;20547;-73
2024/01/10 12:19:41;;;;;;;2.40;1.40;;;-0.60;1.00;;;;;;4997827;28;20480;-71
2024/01/10 12:22:09;;;;;;;0.50;0.10;;;-0.50;1.00;;;;;;4996641;28;20460;-72
2024/01/10 12:24:45;;;;;;;0.80;0.50;;;-0.50;1.00;;;;;;4994189;28;20555;-72
2024/01/10 12:27:13;;;;;;;0.60;0.50;;;-0.50;1.00;;;;;;4995200;28;20471;-72
2024/01/10 12:29:42;;;;;;;0.60;0.33;;;-0.50;1.00;;;;;;4994960;28;20480;-72
2024/01/10 12:32:10;;;;;;;0.70;0.43;;;-3.70;1.00;;;;;;4996798;28;20453;-72
2024/01/10 12:34:40;;;;;;;0.50;0.10;;;-0.40;1.00;;;;;;4998373;28;20519;-72
2024/01/10 12:37:08;;;;;;;0.50;0.10;;;-0.30;1.00;;;;;;4996290;28;20469;-72
2024/01/10 12:39:37;;;;;;;0.50;0.10;;;-0.30;1.00;;;;;;4993231;28;20476;-71
2024/01/10 12:42:08;;;;;;;13.00;5.30;;;-0.20;1.00;;;;;;4992913;28;20492;-73
2024/01/10 12:44:35;;;;;;;1.43;0.97;;;-0.10;1.00;;;;;;4991359;28;20547;-70
2024/01/10 12:47:04;;;;;;;1.57;1.47;;;0.00;1.00;;;;;;4991668;28;20468;-73
2024/01/10 12:49:32;;;;;;;1.17;1.17;;;0.00;1.00;;;;;;4986122;28;20492;-72
2024/01/10 12:52:01;;;;;;;0.60;0.43;;;;;;;;;;4990073;28;20571;-72
2024/01/10 12:54:33;;;;;;;3.37;2.13;;;0.20;1.00;;;;;;4992450;28;20464;-72
2024/01/10 12:57:01;;;;;;;2.40;2.20;;;0.30;1.00;;;;;;4991507;28;20527;-73
2024/01/10 12:59:30;;;;;;;2.50;2.30;;;0.30;1.00;;;;;;4991146;28;20551;-72
2024/01/10 13:01:58;;;;;;;0.50;0.10;;;0.40;1.00;;;;;;4993347;28;21082;-71
2024/01/10 13:04:26;;;;;;;0.50;0.30;;;4.20;1.00;;;;;;4991549;28;20966;-73
2024/01/10 13:06:54;;;;;;;1.43;1.03;;;0.60;1.00;;;;;;4990769;28;20486;-72
2024/01/10 13:09:22;;;;;;;0.80;0.70;;;0.60;1.00;;;;;;4989934;28;20544;-71
2024/01/10 13:11:50;;;;;;;3.13;2.93;;;0.60;1.00;;;;;;4975864;28;20509;-73